Time;durP1;ratioP1;P1;durP2;ratioP2;P2;SDS_P1;SDS_P2;PMS_P1;PMS_P2;Temp;Humidity;BMP_temperature;BMP_pressure;BME280_temperature;BME280_humidity;BME280_pressure;Samples;Min_cycle;Max_cycle;Signal;HPM_P1;HPM_P2
2023/01/07 00:01:48;;;;;;;0.80;0.77;;;18.80;44.00;;;;;;4990397;28;20230;-73
2023/01/07 00:04:15;;;;;;;1.00;0.90;;;18.80;44.00;;;;;;4993750;28;20766;-70
2023/01/07 00:06:42;;;;;;;0.80;0.70;;;18.80;44.00;;;;;;4998113;28;20362;-72
2023/01/07 00:09:12;;;;;;;1.20;1.10;;;18.80;43.90;;;;;;4990116;28;20438;-71
2023/01/07 00:11:39;;;;;;;1.07;0.90;;;18.80;44.00;;;;;;4989970;28;20451;-69
2023/01/07 00:14:07;;;;;;;0.87;0.70;;;18.80;44.00;;;;;;4996955;28;20890;-70
2023/01/07 00:16:34;;;;;;;0.80;0.73;;;18.80;44.00;;;;;;4995186;28;20423;-70
2023/01/07 00:19:03;;;;;;;1.30;1.00;;;18.80;44.00;;;;;;4993899;28;20444;-69
2023/01/07 00:21:29;;;;;;;0.93;0.73;;;18.80;44.00;;;;;;4996931;28;20459;-71
2023/01/07 00:24:01;;;;;;;1.00;0.90;;;18.80;44.00;;;;;;4996560;28;20566;-70
2023/01/07 00:26:30;;;;;;;0.70;0.63;;;18.80;44.10;;;;;;4980177;28;20421;-71
2023/01/07 00:28:56;;;;;;;0.70;0.60;;;18.80;44.10;;;;;;4992438;28;21505;-72
2023/01/07 00:31:24;;;;;;;0.80;0.77;;;18.80;44.10;;;;;;5014439;28;21006;-72
2023/01/07 00:36:19;;;;;;;0.83;0.83;;;18.80;44.10;;;;;;4989424;28;20419;-71
2023/01/07 00:38:45;;;;;;;0.90;0.80;;;18.80;44.10;;;;;;4994752;28;20460;-69
2023/01/07 00:41:11;;;;;;;0.80;0.80;;;18.80;44.10;;;;;;4991633;28;20449;-74
2023/01/07 00:43:37;;;;;;;1.00;0.90;;;18.80;44.10;;;;;;4993445;28;20426;-75
2023/01/07 00:46:02;;;;;;;0.80;0.70;;;18.80;44.10;;;;;;4998012;28;20241;-69
2023/01/07 00:48:28;;;;;;;0.70;0.70;;;18.80;44.10;;;;;;4990075;28;20258;-69
2023/01/07 00:50:55;;;;;;;0.90;0.80;;;18.80;44.10;;;;;;4992581;28;20298;-69
2023/01/07 00:53:21;;;;;;;0.80;0.80;;;18.80;44.20;;;;;;4991690;28;20223;-69
2023/01/07 00:55:48;;;;;;;1.00;0.90;;;18.80;44.20;;;;;;4996287;28;20494;-69
2023/01/07 00:58:17;;;;;;;0.70;0.70;;;18.80;44.20;;;;;;4997493;28;20455;-68
2023/01/07 01:00:43;;;;;;;0.83;0.70;;;18.80;44.20;;;;;;4991646;28;20425;-70
2023/01/07 01:03:10;;;;;;;0.90;0.70;;;18.80;44.10;;;;;;4986296;28;20490;-69
2023/01/07 01:05:36;;;;;;;0.80;0.80;;;18.80;44.20;;;;;;4997813;28;20222;-68
2023/01/07 01:08:01;;;;;;;0.97;0.80;;;18.80;44.20;;;;;;4994227;28;20428;-70
2023/01/07 01:10:27;;;;;;;0.90;0.80;;;18.80;44.20;;;;;;4988368;28;20735;-69
2023/01/07 01:12:53;;;;;;;0.80;0.70;;;18.80;44.20;;;;;;4988460;28;20220;-74
2023/01/07 01:15:19;;;;;;;1.10;1.00;;;18.80;44.20;;;;;;4991860;28;20293;-68
2023/01/07 01:17:44;;;;;;;0.90;0.80;;;18.80;44.30;;;;;;4987235;28;20239;-70
2023/01/07 01:20:13;;;;;;;0.80;0.80;;;18.80;44.30;;;;;;4988205;28;20492;-69
2023/01/07 01:22:38;;;;;;;0.90;0.80;;;18.80;44.20;;;;;;4992688;28;20216;-73
2023/01/07 01:25:04;;;;;;;1.13;0.80;;;18.80;44.20;;;;;;4985953;28;20460;-71
2023/01/07 01:27:30;;;;;;;1.10;0.97;;;18.80;44.20;;;;;;4983434;28;20315;-69
2023/01/07 01:29:57;;;;;;;1.07;0.93;;;18.80;44.20;;;;;;4990103;28;20234;-71
2023/01/07 01:32:23;;;;;;;0.90;0.80;;;18.80;44.20;;;;;;4992562;28;20751;-74
2023/01/07 01:34:48;;;;;;;1.00;0.70;;;18.80;44.20;;;;;;4987869;28;20506;-71
2023/01/07 01:37:14;;;;;;;0.80;0.80;;;18.80;44.20;;;;;;4991085;28;20232;-76
2023/01/07 01:39:39;;;;;;;0.80;0.80;;;18.80;43.50;;;;;;4992695;28;20226;-69
2023/01/07 01:42:05;;;;;;;0.70;0.70;;;18.80;44.20;;;;;;4985287;28;20319;-74
2023/01/07 01:44:40;;;;;;;0.90;0.70;;;18.80;44.30;;;;;;4976024;28;20263;-74
2023/01/07 01:47:24;;;;;;;0.80;0.70;;;18.70;44.10;;;;;;4988391;28;20322;-76
2023/01/07 01:49:58;;;;;;;1.73;0.80;;;18.80;44.20;;;;;;4998798;28;20885;-70
2023/01/07 01:52:32;;;;;;;0.80;0.60;;;18.70;44.10;;;;;;4988321;28;20444;-72
2023/01/07 01:55:01;;;;;;;0.87;0.77;;;18.80;44.20;;;;;;4991979;28;20440;-69
2023/01/07 01:57:29;;;;;;;0.73;0.63;;;18.80;44.20;;;;;;4979137;28;20505;-70
2023/01/07 01:59:55;;;;;;;0.80;0.70;;;18.70;44.60;;;;;;4974192;28;20461;-71
2023/01/07 02:02:39;;;;;;;0.80;0.80;;;18.80;44.30;;;;;;4989522;28;20438;-70
2023/01/07 02:05:06;;;;;;;0.70;0.60;;;18.70;44.10;;;;;;4984830;28;21047;-69
2023/01/07 02:07:32;;;;;;;1.00;0.90;;;18.80;44.20;;;;;;4985260;28;20891;-71
2023/01/07 02:10:00;;;;;;;0.90;0.80;;;18.70;44.10;;;;;;4980169;28;20425;-71
2023/01/07 02:12:43;;;;;;;0.83;0.77;;;18.70;44.10;;;;;;4990208;28;20346;-74
2023/01/07 02:15:32;;;;;;;0.90;0.80;;;18.70;44.10;;;;;;4988018;28;20444;-70
2023/01/07 02:18:35;;;;;;;0.70;0.70;;;18.70;44.20;;;;;;4998404;28;20421;-69
2023/01/07 02:21:13;;;;;;;0.90;0.70;;;18.70;44.20;;;;;;4982801;28;20557;-68
2023/01/07 02:23:53;;;;;;;1.00;0.80;;;18.70;44.20;;;;;;4989358;28;20926;-69
2023/01/07 02:26:38;;;;;;;0.70;0.70;;;18.70;44.20;;;;;;4992286;28;20436;-71
2023/01/07 02:29:13;;;;;;;1.03;0.93;;;18.70;44.20;;;;;;4988735;28;21012;-69
2023/01/07 02:32:26;;;;;;;0.90;0.80;;;18.70;44.20;;;;;;4994528;28;20436;-71
2023/01/07 02:35:23;;;;;;;0.70;0.60;;;18.70;44.20;;;;;;4991284;28;20458;-72
2023/01/07 02:37:52;;;;;;;0.90;0.80;;;18.70;44.20;;;;;;4982919;28;20492;-75
2023/01/07 02:40:20;;;;;;;1.00;0.70;;;18.70;44.30;;;;;;4993498;28;20482;-70
2023/01/07 02:43:02;;;;;;;0.70;0.70;;;18.70;44.30;;;;;;4993241;28;20527;-72
2023/01/07 02:45:30;;;;;;;0.67;0.63;;;18.70;44.20;;;;;;4989355;28;20566;-69
2023/01/07 02:48:07;;;;;;;0.80;0.60;;;18.70;44.30;;;;;;4991545;28;20544;-69
2023/01/07 02:50:32;;;;;;;1.03;0.80;;;18.70;44.20;;;;;;4991160;28;20932;-70
2023/01/07 02:52:58;;;;;;;0.90;0.70;;;18.70;44.30;;;;;;4991333;28;20441;-72
2023/01/07 02:56:02;;;;;;;0.70;0.70;;;18.70;44.20;;;;;;4995097;28;20250;-70
2023/01/07 02:58:59;;;;;;;0.60;0.60;;;18.70;44.20;;;;;;4993171;28;20273;-71
2023/01/07 03:01:33;;;;;;;0.90;0.70;;;18.70;44.30;;;;;;4987310;28;21051;-74
2023/01/07 03:04:24;;;;;;;1.00;0.90;;;18.70;44.20;;;;;;4992435;28;20447;-70
2023/01/07 03:07:08;;;;;;;0.73;0.70;;;18.70;44.20;;;;;;4996766;28;20529;-73
2023/01/07 03:09:42;;;;;;;0.80;0.73;;;18.70;44.20;;;;;;4986779;28;20458;-69
2023/01/07 03:12:33;;;;;;;0.80;0.70;;;18.70;44.30;;;;;;4991122;28;20463;-70
2023/01/07 03:15:10;;;;;;;0.80;0.70;;;18.70;44.20;;;;;;4991184;28;21129;-69
2023/01/07 03:18:07;;;;;;;0.80;0.80;;;18.70;44.20;;;;;;4990454;28;20453;-69
2023/01/07 03:20:37;;;;;;;0.80;0.80;;;18.70;44.30;;;;;;4975077;28;20486;-69
2023/01/07 03:23:06;;;;;;;0.80;0.70;;;18.70;44.30;;;;;;4991940;28;21198;-68
2023/01/07 03:25:36;;;;;;;0.73;0.60;;;18.70;44.30;;;;;;4994705;28;20759;-68
2023/01/07 03:28:03;;;;;;;0.80;0.70;;;18.70;44.30;;;;;;4984813;28;20431;-69
2023/01/07 03:30:30;;;;;;;0.70;0.70;;;18.70;44.30;;;;;;4981885;28;20443;-69
2023/01/07 03:33:15;;;;;;;0.93;0.80;;;18.70;44.30;;;;;;4995682;28;20424;-69
2023/01/07 03:35:44;;;;;;;0.80;0.70;;;18.70;44.20;;;;;;4989631;28;20481;-71
2023/01/07 03:38:11;;;;;;;0.70;0.70;;;18.70;44.30;;;;;;4994940;28;20455;-71
2023/01/07 03:40:37;;;;;;;0.80;0.70;;;18.70;44.30;;;;;;4992260;28;20795;-71
2023/01/07 03:43:03;;;;;;;0.70;0.60;;;18.70;44.30;;;;;;4983160;28;20460;-69
2023/01/07 03:45:29;;;;;;;1.63;0.70;;;18.70;44.30;;;;;;4994983;28;20457;-71
2023/01/07 03:47:56;;;;;;;0.90;0.67;;;18.70;44.30;;;;;;4993808;28;20218;-69
2023/01/07 03:50:22;;;;;;;1.50;0.80;;;18.70;44.30;;;;;;4994810;28;20446;-74
2023/01/07 03:52:48;;;;;;;0.70;0.70;;;18.70;44.30;;;;;;4992885;28;20420;-72
2023/01/07 03:55:14;;;;;;;0.70;0.63;;;18.70;44.30;;;;;;4995915;28;20439;-71
2023/01/07 03:57:39;;;;;;;1.03;0.80;;;18.70;44.20;;;;;;4991627;28;20435;-70
2023/01/07 04:00:07;;;;;;;0.70;0.63;;;18.70;44.20;;;;;;4991526;28;20824;-69
2023/01/07 04:02:33;;;;;;;0.70;0.63;;;18.70;44.20;;;;;;4994335;28;20219;-71
2023/01/07 04:04:58;;;;;;;0.70;0.70;;;18.70;44.20;;;;;;4990755;28;20442;-69
2023/01/07 04:07:24;;;;;;;1.80;0.70;;;18.70;44.20;;;;;;4994640;28;20516;-69
2023/01/07 04:09:49;;;;;;;0.87;0.87;;;18.70;44.20;;;;;;4990465;28;20211;-70
2023/01/07 04:12:16;;;;;;;0.77;0.77;;;18.70;44.20;;;;;;4995828;28;20269;-69
2023/01/07 04:14:41;;;;;;;0.80;0.73;;;18.70;44.30;;;;;;4995805;28;20235;-69
2023/01/07 04:17:07;;;;;;;0.70;0.60;;;18.70;44.20;;;;;;4994862;28;20447;-72
2023/01/07 04:19:32;;;;;;;0.80;0.70;;;18.70;44.30;;;;;;4994060;28;20227;-69
2023/01/07 04:21:58;;;;;;;0.80;0.70;;;18.70;44.30;;;;;;4992914;28;20239;-69
2023/01/07 04:24:24;;;;;;;0.80;0.80;;;18.70;44.20;;;;;;4992293;28;20238;-72
2023/01/07 04:26:49;;;;;;;0.80;0.60;;;18.70;44.30;;;;;;4996620;28;20216;-70
2023/01/07 04:29:15;;;;;;;0.80;0.60;;;18.70;44.30;;;;;;4994789;28;20228;-70
2023/01/07 04:31:40;;;;;;;1.33;0.80;;;18.70;44.30;;;;;;4977916;28;20224;-69
2023/01/07 04:34:06;;;;;;;0.73;0.73;;;18.70;44.30;;;;;;4978217;28;20288;-69
2023/01/07 04:36:31;;;;;;;0.90;0.70;;;18.70;44.30;;;;;;4997017;28;20283;-70
2023/01/07 04:38:57;;;;;;;0.70;0.70;;;18.70;44.30;;;;;;4992249;28;20726;-69
2023/01/07 04:41:22;;;;;;;0.60;0.57;;;18.70;44.30;;;;;;4987222;28;20590;-71
2023/01/07 04:43:48;;;;;;;0.97;0.80;;;18.70;44.30;;;;;;4994094;28;20646;-70
2023/01/07 04:46:13;;;;;;;0.80;0.70;;;18.70;44.30;;;;;;4994310;28;20231;-70
2023/01/07 04:48:39;;;;;;;0.73;0.63;;;18.70;44.20;;;;;;4992596;28;20703;-70
2023/01/07 04:51:05;;;;;;;0.90;0.63;;;18.70;44.30;;;;;;4980647;28;20675;-71
2023/01/07 04:53:30;;;;;;;0.70;0.60;;;18.70;44.30;;;;;;4992194;28;20254;-69
2023/01/07 04:55:56;;;;;;;0.80;0.70;;;18.70;44.30;;;;;;4991280;28;20698;-71
2023/01/07 04:58:21;;;;;;;0.70;0.60;;;18.70;44.20;;;;;;4975685;28;20319;-71
2023/01/07 05:00:47;;;;;;;0.60;0.60;;;18.70;44.10;;;;;;4974015;28;20266;-72
2023/01/07 05:03:13;;;;;;;1.00;0.70;;;18.70;44.20;;;;;;4976885;28;20330;-70
2023/01/07 05:05:38;;;;;;;0.70;0.70;;;18.70;44.10;;;;;;4977654;28;20996;-70
2023/01/07 05:08:04;;;;;;;0.70;0.60;;;18.80;44.20;;;;;;4973888;28;21646;-70
2023/01/07 05:10:30;;;;;;;1.43;0.77;;;18.80;44.10;;;;;;4992688;28;20245;-70
2023/01/07 05:12:55;;;;;;;0.60;0.60;;;18.80;44.20;;;;;;4991367;28;20219;-71
2023/01/07 05:15:21;;;;;;;0.60;0.60;;;18.80;44.20;;;;;;4997035;28;20235;-72
2023/01/07 05:17:46;;;;;;;0.70;0.60;;;18.80;44.20;;;;;;4985466;28;20228;-70
2023/01/07 05:20:13;;;;;;;0.70;0.70;;;18.80;44.10;;;;;;4979857;28;20229;-71
2023/01/07 05:22:38;;;;;;;0.90;0.80;;;18.80;44.20;;;;;;4987940;28;20414;-69
2023/01/07 05:25:04;;;;;;;0.70;0.60;;;18.80;44.10;;;;;;4993809;28;20443;-72
2023/01/07 05:27:30;;;;;;;1.20;0.80;;;18.80;44.00;;;;;;4994252;28;20239;-70
2023/01/07 05:29:55;;;;;;;0.70;0.70;;;18.80;44.10;;;;;;4992888;28;21156;-70
2023/01/07 05:32:21;;;;;;;0.80;0.70;;;18.80;44.10;;;;;;4991406;28;20921;-70
2023/01/07 05:34:46;;;;;;;0.80;0.67;;;18.80;44.00;;;;;;4994323;28;20707;-69
2023/01/07 05:37:12;;;;;;;0.70;0.70;;;18.80;44.10;;;;;;4995998;28;20239;-70
2023/01/07 05:39:37;;;;;;;0.70;0.60;;;18.80;44.10;;;;;;4994045;28;20306;-70
2023/01/07 05:42:03;;;;;;;0.90;0.70;;;18.80;44.10;;;;;;4992145;28;20612;-70
2023/01/07 05:44:28;;;;;;;0.70;0.70;;;18.90;44.00;;;;;;4983946;28;20534;-71
2023/01/07 05:46:54;;;;;;;0.70;0.67;;;18.80;44.00;;;;;;4989903;28;20219;-72
2023/01/07 05:49:19;;;;;;;0.70;0.60;;;18.80;44.00;;;;;;4993157;28;20258;-72
2023/01/07 05:51:45;;;;;;;0.70;0.70;;;18.90;44.00;;;;;;4990629;28;20240;-70
2023/01/07 05:54:11;;;;;;;0.70;0.67;;;18.90;44.00;;;;;;4995620;28;20255;-70
2023/01/07 05:56:36;;;;;;;0.67;0.60;;;18.90;44.00;;;;;;4989520;28;20228;-70
2023/01/07 05:59:02;;;;;;;0.80;0.70;;;18.90;44.00;;;;;;4989705;28;20232;-70
2023/01/07 06:01:27;;;;;;;0.67;0.60;;;18.90;44.10;;;;;;4993683;28;20223;-69
2023/01/07 06:03:53;;;;;;;0.83;0.67;;;18.90;44.00;;;;;;4992075;28;20216;-73
2023/01/07 06:06:18;;;;;;;0.70;0.60;;;18.80;44.00;;;;;;4989658;28;20235;-72
2023/01/07 06:08:44;;;;;;;0.80;0.60;;;18.90;44.00;;;;;;4996431;28;20301;-69
2023/01/07 06:11:09;;;;;;;0.70;0.70;;;18.90;44.00;;;;;;4993777;28;20357;-69
2023/01/07 06:13:35;;;;;;;0.80;0.70;;;18.90;44.00;;;;;;4994728;28;20692;-71
2023/01/07 06:16:03;;;;;;;0.67;0.60;;;18.90;43.90;;;;;;5005272;28;20239;-70
2023/01/07 06:18:28;;;;;;;0.70;0.67;;;18.90;43.90;;;;;;4993954;28;20262;-70
2023/01/07 06:20:54;;;;;;;1.00;0.70;;;18.90;43.90;;;;;;4987726;28;20468;-70
2023/01/07 06:23:20;;;;;;;0.67;0.67;;;18.90;43.80;;;;;;4992966;28;20414;-72
2023/01/07 06:25:45;;;;;;;0.70;0.63;;;18.90;43.80;;;;;;4995273;28;20220;-70
2023/01/07 06:28:11;;;;;;;0.70;0.63;;;18.90;43.80;;;;;;4978149;28;20227;-70
2023/01/07 06:30:36;;;;;;;0.80;0.60;;;18.90;43.80;;;;;;4990309;28;20240;-71
2023/01/07 06:33:04;;;;;;;0.90;0.70;;;18.90;43.80;;;;;;4981950;28;20278;-68
2023/01/07 06:35:30;;;;;;;0.60;0.50;;;18.90;43.80;;;;;;4977955;28;20239;-67
2023/01/07 06:37:55;;;;;;;0.80;0.70;;;18.90;43.90;;;;;;4977916;28;20443;-67
2023/01/07 06:40:21;;;;;;;0.70;0.60;;;18.90;43.80;;;;;;4993257;28;20316;-68
2023/01/07 06:42:46;;;;;;;0.83;0.70;;;18.90;43.80;;;;;;4994145;28;20752;-68
2023/01/07 06:45:12;;;;;;;0.70;0.60;;;18.90;43.80;;;;;;4982673;28;20235;-69
2023/01/07 06:47:37;;;;;;;1.27;0.70;;;18.90;43.80;;;;;;4995235;28;20266;-74
2023/01/07 06:50:03;;;;;;;0.70;0.67;;;18.90;43.80;;;;;;4989557;28;20216;-70
2023/01/07 06:52:29;;;;;;;0.77;0.60;;;18.90;43.70;;;;;;4993207;28;20223;-66
2023/01/07 06:54:54;;;;;;;0.70;0.70;;;18.90;43.80;;;;;;4990419;28;20263;-67
2023/01/07 06:57:20;;;;;;;0.70;0.60;;;18.90;43.70;;;;;;4996958;28;20219;-67
2023/01/07 06:59:45;;;;;;;0.73;0.60;;;18.90;43.70;;;;;;4992645;28;20234;-66
2023/01/07 07:02:22;;;;;;;0.70;0.70;;;18.90;43.70;;;;;;4990638;28;20274;-66
2023/01/07 07:04:48;;;;;;;0.90;0.80;;;19.00;43.80;;;;;;4992721;28;20281;-70
2023/01/07 07:07:14;;;;;;;0.70;0.60;;;18.90;43.70;;;;;;4989719;28;20435;-67
2023/01/07 07:09:39;;;;;;;0.60;0.60;;;19.00;43.90;;;;;;4990336;28;20216;-70
2023/01/07 07:12:05;;;;;;;0.70;0.70;;;19.00;43.90;;;;;;4994168;28;20229;-68
2023/01/07 07:14:31;;;;;;;0.60;0.60;;;19.00;43.80;;;;;;4993387;28;20263;-68
2023/01/07 07:16:57;;;;;;;0.70;0.70;;;19.00;43.80;;;;;;4990344;28;20262;-69
2023/01/07 07:19:23;;;;;;;0.70;0.67;;;19.00;43.80;;;;;;4991363;28;21105;-70
2023/01/07 07:21:48;;;;;;;0.90;0.60;;;19.00;43.80;;;;;;4989802;28;20222;-69
2023/01/07 07:24:14;;;;;;;0.73;0.60;;;19.00;43.80;;;;;;4987351;28;20309;-70
2023/01/07 07:26:40;;;;;;;0.80;0.80;;;18.90;43.70;;;;;;4994260;28;20695;-68
2023/01/07 07:29:05;;;;;;;0.70;0.60;;;19.00;43.80;;;;;;4982143;28;20275;-71
2023/01/07 07:31:31;;;;;;;0.60;0.60;;;18.90;43.70;;;;;;4980625;28;20223;-69
2023/01/07 07:33:56;;;;;;;0.70;0.60;;;18.90;43.70;;;;;;4995652;28;20222;-66
2023/01/07 07:36:22;;;;;;;1.07;0.60;;;18.90;43.70;;;;;;4987876;28;20243;-68
2023/01/07 07:38:48;;;;;;;0.60;0.57;;;19.00;43.80;;;;;;4984457;28;20227;-75
2023/01/07 07:41:13;;;;;;;0.70;0.60;;;19.00;43.80;;;;;;4986689;28;20258;-71
2023/01/07 07:43:39;;;;;;;0.70;0.70;;;19.00;43.80;;;;;;4989717;28;20224;-71
2023/01/07 07:46:04;;;;;;;1.20;0.60;;;19.00;44.60;;;;;;4992579;28;20995;-68
2023/01/07 07:48:30;;;;;;;0.63;0.60;;;19.00;43.80;;;;;;4988373;28;20240;-68
2023/01/07 07:50:56;;;;;;;0.70;0.60;;;18.90;43.70;;;;;;4990547;28;20890;-68
2023/01/07 07:53:21;;;;;;;0.70;0.70;;;19.00;43.80;;;;;;4985717;28;20672;-69
2023/01/07 07:55:47;;;;;;;0.60;0.57;;;19.00;43.90;;;;;;4982432;28;21018;-67
2023/01/07 07:58:13;;;;;;;0.73;0.60;;;19.00;43.80;;;;;;4967312;28;20259;-70
2023/01/07 08:00:39;;;;;;;1.20;0.80;;;19.00;43.80;;;;;;4983895;28;20250;-71
2023/01/07 08:03:04;;;;;;;0.80;0.80;;;19.00;43.90;;;;;;4986702;28;20250;-68
2023/01/07 08:05:30;;;;;;;0.70;0.60;;;19.00;43.80;;;;;;4988661;28;20230;-68
2023/01/07 08:07:57;;;;;;;0.60;0.50;;;19.00;43.80;;;;;;4991525;28;20362;-68
2023/01/07 08:10:24;;;;;;;0.90;0.60;;;19.00;43.80;;;;;;4988120;28;20270;-69
2023/01/07 08:12:53;;;;;;;0.87;0.77;;;19.00;43.80;;;;;;4991152;28;20438;-68
2023/01/07 08:15:19;;;;;;;0.70;0.60;;;19.00;43.80;;;;;;4980581;28;20439;-69
2023/01/07 08:17:44;;;;;;;0.70;0.70;;;19.00;43.80;;;;;;4986042;28;20482;-71
2023/01/07 08:20:11;;;;;;;1.63;0.60;;;19.00;43.80;;;;;;4981778;28;20228;-69
2023/01/07 08:22:36;;;;;;;0.90;0.90;;;19.00;43.80;;;;;;4991307;28;20224;-69
2023/01/07 08:25:02;;;;;;;0.70;0.70;;;19.00;43.80;;;;;;4988078;28;20457;-68
2023/01/07 08:27:28;;;;;;;0.90;0.80;;;19.00;43.80;;;;;;4992478;28;20256;-68
2023/01/07 08:29:55;;;;;;;0.70;0.63;;;19.00;43.80;;;;;;4976973;28;20229;-73
2023/01/07 08:32:21;;;;;;;0.70;0.60;;;19.00;43.80;;;;;;4993761;28;20448;-69
2023/01/07 08:34:47;;;;;;;1.37;0.60;;;19.00;43.80;;;;;;4988328;28;20454;-68
2023/01/07 08:37:13;;;;;;;0.70;0.60;;;19.00;43.80;;;;;;4988878;28;20444;-68
2023/01/07 08:39:39;;;;;;;1.00;0.60;;;18.90;43.80;;;;;;4993863;28;20486;-72
2023/01/07 08:42:04;;;;;;;0.60;0.50;;;18.90;43.70;;;;;;4989446;28;20478;-70
2023/01/07 08:44:31;;;;;;;0.63;0.50;;;19.00;43.80;;;;;;4988318;28;20228;-68
2023/01/07 08:46:56;;;;;;;0.70;0.60;;;18.90;43.70;;;;;;4991221;28;20299;-69
2023/01/07 08:49:22;;;;;;;0.70;0.70;;;18.90;43.70;;;;;;4991044;28;20776;-68
2023/01/07 08:51:48;;;;;;;0.70;0.60;;;18.90;43.80;;;;;;4993270;28;20279;-71
2023/01/07 08:54:13;;;;;;;0.67;0.53;;;18.90;43.80;;;;;;4998622;28;20227;-69
2023/01/07 08:56:39;;;;;;;0.80;0.60;;;18.90;43.70;;;;;;4994917;28;20228;-70
2023/01/07 08:59:05;;;;;;;0.70;0.60;;;18.90;43.80;;;;;;4991146;28;20307;-69
2023/01/07 09:01:30;;;;;;;0.73;0.70;;;18.90;43.80;;;;;;4985679;28;20769;-70
2023/01/07 09:03:56;;;;;;;0.80;0.70;;;18.90;43.80;;;;;;4988955;28;20216;-70
2023/01/07 09:06:22;;;;;;;0.80;0.80;;;18.90;43.90;;;;;;4978312;28;20290;-72
2023/01/07 09:08:48;;;;;;;2.20;1.30;;;18.90;43.90;;;;;;4995819;28;20251;-70
2023/01/07 09:11:14;;;;;;;0.80;0.70;;;18.90;43.80;;;;;;4994694;28;20691;-72
2023/01/07 09:13:40;;;;;;;0.80;0.67;;;18.90;43.80;;;;;;4990406;28;20468;-71
2023/01/07 09:16:06;;;;;;;1.33;0.80;;;18.90;43.70;;;;;;4992534;28;20828;-69
2023/01/07 09:18:31;;;;;;;0.80;0.70;;;18.90;43.80;;;;;;4994604;28;20222;-71
2023/01/07 09:20:57;;;;;;;0.80;0.60;;;18.90;43.80;;;;;;4984970;28;20783;-71
2023/01/07 09:23:22;;;;;;;0.83;0.80;;;18.90;43.80;;;;;;4994065;28;20243;-69
2023/01/07 09:25:48;;;;;;;0.97;0.60;;;18.90;43.80;;;;;;4980307;28;20224;-73
2023/01/07 09:28:13;;;;;;;0.80;0.70;;;18.90;43.80;;;;;;4993456;28;20711;-72
2023/01/07 09:30:39;;;;;;;0.63;0.60;;;18.90;43.90;;;;;;4994678;28;20224;-73
2023/01/07 09:33:04;;;;;;;0.70;0.67;;;18.90;43.80;;;;;;4998719;28;20624;-72
2023/01/07 09:35:30;;;;;;;0.60;0.60;;;18.90;43.90;;;;;;4997431;28;20243;-70
2023/01/07 09:37:55;;;;;;;0.80;0.70;;;18.90;43.80;;;;;;4987929;28;20231;-81
2023/01/07 09:40:26;;;;;;;0.80;0.80;;;18.90;43.90;;;;;;4995543;28;20233;-70
2023/01/07 09:42:55;;;;;;;0.70;0.60;;;18.90;43.90;;;;;;4995357;28;20252;-74
2023/01/07 09:45:31;;;;;;;1.00;0.70;;;18.90;43.80;;;;;;4997399;28;20425;-72
2023/01/07 09:47:59;;;;;;;0.60;0.57;;;18.90;43.90;;;;;;4988129;28;21100;-72
2023/01/07 09:50:36;;;;;;;0.70;0.70;;;18.90;43.80;;;;;;4997158;28;20449;-72
2023/01/07 09:53:06;;;;;;;0.70;0.60;;;18.90;43.90;;;;;;4994319;28;20460;-71
2023/01/07 09:55:37;;;;;;;0.70;0.70;;;18.90;43.90;;;;;;4989011;28;20462;-72
2023/01/07 09:58:04;;;;;;;0.90;0.60;;;18.90;43.90;;;;;;4989090;28;20438;-72
2023/01/07 10:00:31;;;;;;;0.70;0.67;;;18.90;43.90;;;;;;4990238;28;20491;-83
2023/01/07 10:03:08;;;;;;;0.83;0.80;;;18.90;43.90;;;;;;4992522;28;20431;-73
2023/01/07 10:06:00;;;;;;;0.80;0.70;;;18.90;43.80;;;;;;4990238;28;20515;-74
2023/01/07 10:08:58;;;;;;;0.80;0.80;;;18.90;43.80;;;;;;4988184;28;20465;-73
2023/01/07 10:11:54;;;;;;;1.10;0.70;;;18.90;43.90;;;;;;4995596;28;20465;-74
2023/01/07 10:14:38;;;;;;;0.70;0.70;;;19.00;44.00;;;;;;4993763;28;20997;-70
2023/01/07 10:17:18;;;;;;;0.90;0.70;;;19.00;44.00;;;;;;4988260;28;20432;-68
2023/01/07 10:19:52;;;;;;;1.30;0.90;;;19.00;43.90;;;;;;4975331;28;20540;-71
2023/01/07 10:22:24;;;;;;;0.70;0.60;;;19.00;43.80;;;;;;4993191;28;20513;-71
2023/01/07 10:24:56;;;;;;;5.33;1.03;;;19.00;43.80;;;;;;4988050;28;20609;-67
2023/01/07 10:27:33;;;;;;;1.20;0.90;;;19.00;43.80;;;;;;4987675;28;20454;-71
2023/01/07 10:30:03;;;;;;;0.77;0.73;;;19.00;43.80;;;;;;4987876;28;20745;-73
2023/01/07 10:32:32;;;;;;;0.80;0.70;;;19.00;43.90;;;;;;4979171;28;20436;-72
2023/01/07 10:35:00;;;;;;;0.93;0.87;;;19.00;43.80;;;;;;4983814;28;21084;-72
2023/01/07 10:37:37;;;;;;;0.97;0.70;;;19.10;43.90;;;;;;4986017;28;20958;-72
2023/01/07 10:40:41;;;;;;;0.90;0.70;;;19.10;43.90;;;;;;4987925;28;20503;-70
2023/01/07 10:43:14;;;;;;;0.80;0.70;;;19.10;43.90;;;;;;4993398;28;20455;-72
2023/01/07 10:46:09;;;;;;;0.80;0.70;;;19.10;43.90;;;;;;4992325;28;20441;-75
2023/01/07 10:48:50;;;;;;;0.70;0.70;;;19.10;43.90;;;;;;4993331;28;20435;-68
2023/01/07 10:51:34;;;;;;;0.87;0.80;;;19.10;44.00;;;;;;4994088;28;20493;-70
2023/01/07 10:54:21;;;;;;;1.23;0.80;;;19.10;43.80;;;;;;4992093;28;20681;-71
2023/01/07 10:56:57;;;;;;;0.73;0.60;;;19.10;43.90;;;;;;4994008;28;20452;-72
2023/01/07 10:59:23;;;;;;;1.37;0.80;;;19.10;43.80;;;;;;4992973;28;20436;-75
2023/01/07 11:01:57;;;;;;;3.40;0.80;;;19.10;43.90;;;;;;4989602;28;20422;-70
2023/01/07 11:04:23;;;;;;;1.07;0.70;;;19.10;43.90;;;;;;4995217;28;20431;-71
2023/01/07 11:06:59;;;;;;;3.90;0.80;;;19.10;43.90;;;;;;4993724;28;20428;-70
2023/01/07 11:09:35;;;;;;;0.87;0.70;;;19.10;43.90;;;;;;4989353;28;20436;-73
2023/01/07 11:12:22;;;;;;;0.80;0.70;;;19.20;44.00;;;;;;4990481;28;20460;-72
2023/01/07 11:14:50;;;;;;;2.73;0.97;;;19.20;44.00;;;;;;4994775;28;20438;-75
2023/01/07 11:17:47;;;;;;;1.00;0.90;;;19.20;44.00;;;;;;4993897;28;20448;-72
2023/01/07 11:20:33;;;;;;;0.73;0.67;;;19.20;43.90;;;;;;4998564;28;21017;-72
2023/01/07 11:22:58;;;;;;;1.33;0.80;;;19.20;44.00;;;;;;4989530;28;20445;-71
2023/01/07 11:25:28;;;;;;;2.10;0.70;;;19.20;44.00;;;;;;4994956;28;20977;-78
2023/01/07 11:28:01;;;;;;;0.80;0.70;;;19.20;43.90;;;;;;4993254;28;20919;-73
2023/01/07 11:30:30;;;;;;;1.17;0.90;;;19.20;44.00;;;;;;4995961;28;20450;-75
2023/01/07 11:33:00;;;;;;;0.90;0.77;;;19.20;44.00;;;;;;4985790;28;20458;-73
2023/01/07 11:35:29;;;;;;;1.50;0.90;;;19.20;44.00;;;;;;4992133;28;20469;-71
2023/01/07 11:37:56;;;;;;;1.93;1.00;;;19.20;43.90;;;;;;4975575;28;20573;-75
2023/01/07 11:40:31;;;;;;;1.10;1.00;;;19.20;44.00;;;;;;4980349;28;20458;-75
2023/01/07 11:42:58;;;;;;;1.53;0.70;;;19.20;44.20;;;;;;4987950;28;20448;-80
2023/01/07 11:45:25;;;;;;;1.10;0.80;;;19.20;44.00;;;;;;4988390;28;20458;-77
2023/01/07 11:48:15;;;;;;;9.53;1.40;;;19.20;44.00;;;;;;4990385;28;20985;-72
2023/01/07 11:50:53;;;;;;;1.00;0.90;;;19.20;44.00;;;;;;4990440;28;20436;-74
2023/01/07 11:53:19;;;;;;;1.00;0.87;;;19.20;44.00;;;;;;4996995;28;20423;-71
2023/01/07 11:55:57;;;;;;;1.20;1.10;;;19.20;43.90;;;;;;4989522;28;20456;-70
2023/01/07 11:58:24;;;;;;;0.80;0.80;;;19.20;43.90;;;;;;4990834;28;20441;-70
2023/01/07 12:01:08;;;;;;;2.40;0.77;;;19.20;44.00;;;;;;4999371;28;20432;-69
2023/01/07 12:03:54;;;;;;;1.23;0.90;;;19.20;44.00;;;;;;4996334;28;20546;-74
2023/01/07 12:06:26;;;;;;;1.30;0.70;;;19.20;43.90;;;;;;4997592;28;20449;-74
2023/01/07 12:08:53;;;;;;;1.10;0.80;;;19.20;44.00;;;;;;4999417;28;20413;-74
2023/01/07 12:11:20;;;;;;;1.07;0.97;;;19.20;44.00;;;;;;4998309;28;20415;-73
2023/01/07 12:13:51;;;;;;;3.80;0.70;;;19.20;44.00;;;;;;4994658;28;20453;-73
2023/01/07 12:16:27;;;;;;;1.00;0.70;;;19.20;44.00;;;;;;4996827;28;20435;-73
2023/01/07 12:19:11;;;;;;;1.10;0.80;;;19.20;44.00;;;;;;4994392;28;20445;-67
2023/01/07 12:21:58;;;;;;;0.80;0.70;;;19.20;44.00;;;;;;4986099;28;20530;-67
2023/01/07 12:24:43;;;;;;;1.23;1.07;;;19.20;44.00;;;;;;4994082;28;20449;-72
2023/01/07 12:27:26;;;;;;;1.20;1.10;;;19.20;43.90;;;;;;4989450;28;20456;-74
2023/01/07 12:30:09;;;;;;;0.90;0.80;;;19.20;44.00;;;;;;4997420;28;20440;-73
2023/01/07 12:32:47;;;;;;;0.70;0.70;;;19.20;43.90;;;;;;4994734;28;21076;-73
2023/01/07 12:35:27;;;;;;;1.07;0.87;;;19.20;44.00;;;;;;4996781;28;20442;-75
2023/01/07 12:38:01;;;;;;;1.60;0.87;;;19.20;44.00;;;;;;4994948;28;20477;-73
2023/01/07 12:40:37;;;;;;;0.70;0.67;;;19.20;44.00;;;;;;4992287;28;20470;-73
2023/01/07 12:43:34;;;;;;;1.00;0.90;;;19.20;44.00;;;;;;4994779;28;20495;-74
2023/01/07 12:46:23;;;;;;;1.00;0.80;;;19.20;44.00;;;;;;4995861;28;20818;-73
2023/01/07 12:49:20;;;;;;;1.63;0.80;;;19.20;44.00;;;;;;4992473;28;20998;-75
2023/01/07 12:52:04;;;;;;;1.07;0.80;;;19.20;44.00;;;;;;4996576;28;20436;-73
2023/01/07 12:54:53;;;;;;;3.10;1.10;;;19.20;44.00;;;;;;4995405;28;20464;-74
2023/01/07 12:57:24;;;;;;;0.90;0.90;;;19.20;44.00;;;;;;5002969;28;20518;-74
2023/01/07 13:00:25;;;;;;;0.90;0.73;;;19.20;44.00;;;;;;4995406;28;20411;-74
2023/01/07 13:03:21;;;;;;;0.80;0.70;;;19.20;44.00;;;;;;4994707;28;20453;-74
2023/01/07 13:06:03;;;;;;;0.80;0.80;;;19.20;44.00;;;;;;4990988;28;20451;-74
2023/01/07 13:09:24;;;;;;;0.80;0.80;;;19.20;43.90;;;;;;4991002;28;20464;-74